sensor_id;sensor_type;location;lat;lon;timestamp;P1;durP1;ratioP1;P2;durP2;ratioP2
13321;SDS011;6730;46.248;6.930;2022-12-04T00:01:39;17.30;;;10.97;;
13321;SDS011;6730;46.248;6.930;2022-12-04T00:04:04;20.50;;;11.33;;
13321;SDS011;6730;46.248;6.930;2022-12-04T00:06:30;18.40;;;11.40;;
13321;SDS011;6730;46.248;6.930;2022-12-04T00:08:58;18.23;;;11.07;;
13321;SDS011;6730;46.248;6.930;2022-12-04T00:11:25;16.23;;;10.63;;
13321;SDS011;6730;46.248;6.930;2022-12-04T00:13:53;21.03;;;12.37;;
13321;SDS011;6730;46.248;6.930;2022-12-04T00:16:21;19.83;;;12.80;;
13321;SDS011;6730;46.248;6.930;2022-12-04T00:18:50;18.13;;;13.03;;
13321;SDS011;6730;46.248;6.930;2022-12-04T00:21:16;19.23;;;11.97;;
13321;SDS011;6730;46.248;6.930;2022-12-04T00:23:43;18.20;;;11.90;;
13321;SDS011;6730;46.248;6.930;2022-12-04T00:26:31;18.53;;;11.23;;
13321;SDS011;6730;46.248;6.930;2022-12-04T00:28:55;20.83;;;11.43;;
13321;SDS011;6730;46.248;6.930;2022-12-04T00:31:23;20.17;;;10.80;;
13321;SDS011;6730;46.248;6.930;2022-12-04T00:33:50;19.37;;;12.20;;
13321;SDS011;6730;46.248;6.930;2022-12-04T00:36:17;15.87;;;11.23;;
13321;SDS011;6730;46.248;6.930;2022-12-04T00:38:44;19.07;;;11.53;;
13321;SDS011;6730;46.248;6.930;2022-12-04T00:41:13;17.77;;;12.00;;
13321;SDS011;6730;46.248;6.930;2022-12-04T00:43:41;18.40;;;12.17;;
13321;SDS011;6730;46.248;6.930;2022-12-04T00:46:07;15.20;;;10.17;;
13321;SDS011;6730;46.248;6.930;2022-12-04T00:48:33;19.13;;;12.23;;
13321;SDS011;6730;46.248;6.930;2022-12-04T00:51:00;18.00;;;11.33;;
13321;SDS011;6730;46.248;6.930;2022-12-04T00:53:27;18.77;;;11.87;;
13321;SDS011;6730;46.248;6.930;2022-12-04T00:55:53;18.00;;;12.20;;
13321;SDS011;6730;46.248;6.930;2022-12-04T00:58:18;15.67;;;10.53;;
13321;SDS011;6730;46.248;6.930;2022-12-04T01:00:44;17.60;;;11.53;;
13321;SDS011;6730;46.248;6.930;2022-12-04T01:03:10;18.07;;;12.07;;
13321;SDS011;6730;46.248;6.930;2022-12-04T01:05:39;19.87;;;11.63;;
13321;SDS011;6730;46.248;6.930;2022-12-04T01:08:07;17.97;;;12.20;;
13321;SDS011;6730;46.248;6.930;2022-12-04T01:10:34;17.23;;;10.93;;
13321;SDS011;6730;46.248;6.930;2022-12-04T01:13:01;17.03;;;9.73;;
13321;SDS011;6730;46.248;6.930;2022-12-04T01:15:27;15.77;;;10.43;;
13321;SDS011;6730;46.248;6.930;2022-12-04T01:17:53;16.33;;;10.80;;
13321;SDS011;6730;46.248;6.930;2022-12-04T01:20:18;18.17;;;12.43;;
13321;SDS011;6730;46.248;6.930;2022-12-04T01:22:44;20.70;;;11.73;;
13321;SDS011;6730;46.248;6.930;2022-12-04T01:25:10;17.03;;;11.17;;
13321;SDS011;6730;46.248;6.930;2022-12-04T01:27:36;15.37;;;10.40;;
13321;SDS011;6730;46.248;6.930;2022-12-04T01:30:01;16.67;;;10.00;;
13321;SDS011;6730;46.248;6.930;2022-12-04T01:32:28;16.23;;;10.87;;
13321;SDS011;6730;46.248;6.930;2022-12-04T01:34:54;17.80;;;11.33;;
13321;SDS011;6730;46.248;6.930;2022-12-04T01:37:19;18.70;;;11.87;;
13321;SDS011;6730;46.248;6.930;2022-12-04T01:39:45;17.73;;;10.67;;
13321;SDS011;6730;46.248;6.930;2022-12-04T01:42:14;22.37;;;13.00;;
13321;SDS011;6730;46.248;6.930;2022-12-04T01:44:44;21.27;;;12.00;;
13321;SDS011;6730;46.248;6.930;2022-12-04T01:47:47;18.53;;;11.40;;
13321;SDS011;6730;46.248;6.930;2022-12-04T01:50:13;17.03;;;10.37;;
13321;SDS011;6730;46.248;6.930;2022-12-04T01:52:39;17.23;;;11.23;;
13321;SDS011;6730;46.248;6.930;2022-12-04T01:55:05;18.37;;;10.67;;
13321;SDS011;6730;46.248;6.930;2022-12-04T01:57:31;16.40;;;11.00;;
13321;SDS011;6730;46.248;6.930;2022-12-04T02:00:03;18.03;;;11.17;;
13321;SDS011;6730;46.248;6.930;2022-12-04T02:02:32;20.73;;;11.83;;
13321;SDS011;6730;46.248;6.930;2022-12-04T02:05:01;20.00;;;11.73;;
13321;SDS011;6730;46.248;6.930;2022-12-04T02:07:28;15.77;;;10.33;;
13321;SDS011;6730;46.248;6.930;2022-12-04T02:09:54;14.00;;;10.23;;
13321;SDS011;6730;46.248;6.930;2022-12-04T02:15:19;20.47;;;11.80;;
13321;SDS011;6730;46.248;6.930;2022-12-04T02:24:00;15.33;;;10.10;;
13321;SDS011;6730;46.248;6.930;2022-12-04T02:29:02;16.37;;;10.60;;
13321;SDS011;6730;46.248;6.930;2022-12-04T02:31:32;16.13;;;9.73;;
13321;SDS011;6730;46.248;6.930;2022-12-04T02:34:04;17.27;;;10.23;;
13321;SDS011;6730;46.248;6.930;2022-12-04T02:36:42;14.43;;;9.73;;
13321;SDS011;6730;46.248;6.930;2022-12-04T02:44:41;17.93;;;12.03;;
13321;SDS011;6730;46.248;6.930;2022-12-04T02:47:12;15.30;;;9.80;;
13321;SDS011;6730;46.248;6.930;2022-12-04T02:49:45;27.57;;;15.13;;
13321;SDS011;6730;46.248;6.930;2022-12-04T02:52:17;17.93;;;11.20;;
13321;SDS011;6730;46.248;6.930;2022-12-04T02:54:50;18.87;;;12.27;;
13321;SDS011;6730;46.248;6.930;2022-12-04T02:57:23;19.10;;;11.90;;
13321;SDS011;6730;46.248;6.930;2022-12-04T02:59:52;16.07;;;11.40;;
13321;SDS011;6730;46.248;6.930;2022-12-04T03:02:22;17.93;;;11.37;;
13321;SDS011;6730;46.248;6.930;2022-12-04T03:04:49;21.80;;;12.53;;
13321;SDS011;6730;46.248;6.930;2022-12-04T03:07:19;19.13;;;12.00;;
13321;SDS011;6730;46.248;6.930;2022-12-04T03:10:00;18.47;;;11.20;;
13321;SDS011;6730;46.248;6.930;2022-12-04T03:12:45;16.00;;;10.50;;
13321;SDS011;6730;46.248;6.930;2022-12-04T03:15:23;21.33;;;11.57;;
13321;SDS011;6730;46.248;6.930;2022-12-04T03:17:55;18.53;;;11.90;;
13321;SDS011;6730;46.248;6.930;2022-12-04T03:20:25;18.23;;;12.30;;
13321;SDS011;6730;46.248;6.930;2022-12-04T03:22:54;16.97;;;10.13;;
13321;SDS011;6730;46.248;6.930;2022-12-04T03:25:31;16.17;;;10.40;;
13321;SDS011;6730;46.248;6.930;2022-12-04T03:28:02;19.23;;;12.60;;
13321;SDS011;6730;46.248;6.930;2022-12-04T03:30:36;19.43;;;12.63;;
13321;SDS011;6730;46.248;6.930;2022-12-04T03:33:10;19.83;;;11.53;;
13321;SDS011;6730;46.248;6.930;2022-12-04T03:35:46;18.70;;;11.90;;
13321;SDS011;6730;46.248;6.930;2022-12-04T03:38:21;18.87;;;12.00;;
13321;SDS011;6730;46.248;6.930;2022-12-04T03:40:53;18.43;;;11.70;;
13321;SDS011;6730;46.248;6.930;2022-12-04T03:43:25;18.37;;;11.80;;
13321;SDS011;6730;46.248;6.930;2022-12-04T03:56:50;20.20;;;11.10;;
13321;SDS011;6730;46.248;6.930;2022-12-04T03:59:29;22.03;;;10.73;;
13321;SDS011;6730;46.248;6.930;2022-12-04T04:02:01;18.97;;;11.70;;
13321;SDS011;6730;46.248;6.930;2022-12-04T04:04:32;21.80;;;11.97;;
13321;SDS011;6730;46.248;6.930;2022-12-04T04:07:04;20.30;;;11.67;;
13321;SDS011;6730;46.248;6.930;2022-12-04T04:09:40;19.37;;;11.37;;
13321;SDS011;6730;46.248;6.930;2022-12-04T04:12:10;16.17;;;11.13;;
13321;SDS011;6730;46.248;6.930;2022-12-04T04:14:41;18.67;;;11.60;;
13321;SDS011;6730;46.248;6.930;2022-12-04T04:17:32;18.83;;;11.30;;
13321;SDS011;6730;46.248;6.930;2022-12-04T04:20:26;17.17;;;10.40;;
13321;SDS011;6730;46.248;6.930;2022-12-04T04:23:18;17.90;;;11.00;;
13321;SDS011;6730;46.248;6.930;2022-12-04T04:26:04;17.53;;;10.93;;
13321;SDS011;6730;46.248;6.930;2022-12-04T04:33:57;17.13;;;10.53;;
13321;SDS011;6730;46.248;6.930;2022-12-04T04:36:33;19.80;;;10.43;;
13321;SDS011;6730;46.248;6.930;2022-12-04T04:41:48;18.57;;;11.10;;
13321;SDS011;6730;46.248;6.930;2022-12-04T04:44:21;16.87;;;10.30;;
13321;SDS011;6730;46.248;6.930;2022-12-04T04:47:19;16.53;;;10.93;;
13321;SDS011;6730;46.248;6.930;2022-12-04T04:49:52;15.10;;;9.50;;
13321;SDS011;6730;46.248;6.930;2022-12-04T04:52:20;15.80;;;10.47;;
13321;SDS011;6730;46.248;6.930;2022-12-04T04:54:47;21.13;;;10.90;;
13321;SDS011;6730;46.248;6.930;2022-12-04T04:57:23;18.83;;;11.57;;
13321;SDS011;6730;46.248;6.930;2022-12-04T04:59:56;15.90;;;10.23;;
13321;SDS011;6730;46.248;6.930;2022-12-04T05:02:23;17.80;;;11.20;;
13321;SDS011;6730;46.248;6.930;2022-12-04T05:04:50;18.87;;;10.57;;
13321;SDS011;6730;46.248;6.930;2022-12-04T05:07:16;17.47;;;10.50;;
13321;SDS011;6730;46.248;6.930;2022-12-04T05:09:42;19.47;;;10.93;;
13321;SDS011;6730;46.248;6.930;2022-12-04T05:12:08;16.93;;;11.50;;
13321;SDS011;6730;46.248;6.930;2022-12-04T05:14:34;16.20;;;9.53;;
13321;SDS011;6730;46.248;6.930;2022-12-04T05:16:59;17.57;;;11.03;;
13321;SDS011;6730;46.248;6.930;2022-12-04T05:19:25;16.03;;;9.70;;
13321;SDS011;6730;46.248;6.930;2022-12-04T05:22:11;15.03;;;10.27;;
13321;SDS011;6730;46.248;6.930;2022-12-04T05:24:37;18.03;;;9.90;;
13321;SDS011;6730;46.248;6.930;2022-12-04T05:27:02;15.27;;;10.03;;
13321;SDS011;6730;46.248;6.930;2022-12-04T05:29:28;15.27;;;9.27;;
13321;SDS011;6730;46.248;6.930;2022-12-04T05:31:54;16.17;;;9.93;;
13321;SDS011;6730;46.248;6.930;2022-12-04T05:34:19;14.33;;;9.63;;
13321;SDS011;6730;46.248;6.930;2022-12-04T05:36:45;16.57;;;9.83;;
13321;SDS011;6730;46.248;6.930;2022-12-04T05:39:10;15.53;;;9.80;;
13321;SDS011;6730;46.248;6.930;2022-12-04T05:41:37;16.07;;;10.10;;
13321;SDS011;6730;46.248;6.930;2022-12-04T05:44:02;18.47;;;9.93;;
13321;SDS011;6730;46.248;6.930;2022-12-04T05:46:28;15.60;;;9.57;;
13321;SDS011;6730;46.248;6.930;2022-12-04T05:48:54;14.63;;;9.90;;
13321;SDS011;6730;46.248;6.930;2022-12-04T05:51:21;15.90;;;8.90;;
13321;SDS011;6730;46.248;6.930;2022-12-04T05:53:46;16.00;;;9.33;;
13321;SDS011;6730;46.248;6.930;2022-12-04T05:56:15;15.20;;;10.27;;
13321;SDS011;6730;46.248;6.930;2022-12-04T05:58:41;14.63;;;8.90;;
13321;SDS011;6730;46.248;6.930;2022-12-04T06:01:10;17.63;;;10.40;;
13321;SDS011;6730;46.248;6.930;2022-12-04T06:03:40;16.57;;;10.53;;
13321;SDS011;6730;46.248;6.930;2022-12-04T06:06:10;17.73;;;10.73;;
13321;SDS011;6730;46.248;6.930;2022-12-04T06:08:40;16.03;;;10.17;;
13321;SDS011;6730;46.248;6.930;2022-12-04T06:11:11;12.43;;;8.17;;
13321;SDS011;6730;46.248;6.930;2022-12-04T06:13:39;15.53;;;9.97;;
13321;SDS011;6730;46.248;6.930;2022-12-04T06:16:10;17.47;;;9.63;;
13321;SDS011;6730;46.248;6.930;2022-12-04T06:18:40;17.50;;;9.83;;
13321;SDS011;6730;46.248;6.930;2022-12-04T06:21:06;17.23;;;10.63;;
13321;SDS011;6730;46.248;6.930;2022-12-04T06:23:33;14.00;;;9.07;;
13321;SDS011;6730;46.248;6.930;2022-12-04T06:26:03;13.73;;;8.77;;
13321;SDS011;6730;46.248;6.930;2022-12-04T06:28:30;14.97;;;9.07;;
13321;SDS011;6730;46.248;6.930;2022-12-04T06:30:59;15.27;;;8.67;;
13321;SDS011;6730;46.248;6.930;2022-12-04T06:33:33;14.67;;;9.10;;
13321;SDS011;6730;46.248;6.930;2022-12-04T06:36:01;14.77;;;9.73;;
13321;SDS011;6730;46.248;6.930;2022-12-04T06:38:28;13.83;;;9.47;;
13321;SDS011;6730;46.248;6.930;2022-12-04T06:40:55;13.93;;;8.93;;
13321;SDS011;6730;46.248;6.930;2022-12-04T06:43:21;14.03;;;9.13;;
13321;SDS011;6730;46.248;6.930;2022-12-04T06:45:47;15.37;;;9.57;;
13321;SDS011;6730;46.248;6.930;2022-12-04T06:48:13;17.03;;;9.47;;
13321;SDS011;6730;46.248;6.930;2022-12-04T06:50:38;13.73;;;9.27;;
13321;SDS011;6730;46.248;6.930;2022-12-04T06:53:04;13.10;;;8.83;;
13321;SDS011;6730;46.248;6.930;2022-12-04T06:55:30;15.30;;;10.37;;
13321;SDS011;6730;46.248;6.930;2022-12-04T06:57:55;14.13;;;8.77;;
13321;SDS011;6730;46.248;6.930;2022-12-04T07:00:21;12.03;;;8.17;;
13321;SDS011;6730;46.248;6.930;2022-12-04T07:02:47;12.77;;;7.93;;
13321;SDS011;6730;46.248;6.930;2022-12-04T07:05:12;14.53;;;9.17;;
13321;SDS011;6730;46.248;6.930;2022-12-04T07:07:39;15.50;;;9.73;;
13321;SDS011;6730;46.248;6.930;2022-12-04T07:10:04;13.37;;;8.83;;
13321;SDS011;6730;46.248;6.930;2022-12-04T07:12:31;14.43;;;8.67;;
13321;SDS011;6730;46.248;6.930;2022-12-04T07:14:56;14.57;;;10.10;;
13321;SDS011;6730;46.248;6.930;2022-12-04T07:17:31;12.60;;;8.03;;
13321;SDS011;6730;46.248;6.930;2022-12-04T07:19:57;11.93;;;8.17;;
13321;SDS011;6730;46.248;6.930;2022-12-04T07:22:22;13.17;;;8.23;;
13321;SDS011;6730;46.248;6.930;2022-12-04T07:24:48;14.90;;;9.03;;
13321;SDS011;6730;46.248;6.930;2022-12-04T07:27:14;14.33;;;8.43;;
13321;SDS011;6730;46.248;6.930;2022-12-04T07:29:39;15.07;;;9.37;;
13321;SDS011;6730;46.248;6.930;2022-12-04T07:32:06;15.50;;;10.00;;
13321;SDS011;6730;46.248;6.930;2022-12-04T07:34:32;15.53;;;9.00;;
13321;SDS011;6730;46.248;6.930;2022-12-04T07:36:59;13.70;;;9.07;;
13321;SDS011;6730;46.248;6.930;2022-12-04T07:39:25;14.87;;;9.40;;
13321;SDS011;6730;46.248;6.930;2022-12-04T07:41:51;16.00;;;9.97;;
13321;SDS011;6730;46.248;6.930;2022-12-04T07:44:16;16.20;;;8.80;;
13321;SDS011;6730;46.248;6.930;2022-12-04T07:46:42;14.10;;;9.57;;
13321;SDS011;6730;46.248;6.930;2022-12-04T07:49:09;17.33;;;10.77;;
13321;SDS011;6730;46.248;6.930;2022-12-04T07:51:36;15.03;;;9.33;;
13321;SDS011;6730;46.248;6.930;2022-12-04T07:54:02;17.80;;;11.27;;
13321;SDS011;6730;46.248;6.930;2022-12-04T07:56:28;18.80;;;11.07;;
13321;SDS011;6730;46.248;6.930;2022-12-04T07:58:53;13.87;;;9.17;;
13321;SDS011;6730;46.248;6.930;2022-12-04T08:01:20;16.30;;;10.27;;
13321;SDS011;6730;46.248;6.930;2022-12-04T08:03:48;18.83;;;11.17;;
13321;SDS011;6730;46.248;6.930;2022-12-04T08:06:16;20.77;;;11.10;;
13321;SDS011;6730;46.248;6.930;2022-12-04T08:08:43;19.17;;;11.70;;
13321;SDS011;6730;46.248;6.930;2022-12-04T08:11:13;19.33;;;11.83;;
13321;SDS011;6730;46.248;6.930;2022-12-04T08:13:41;17.30;;;10.20;;
13321;SDS011;6730;46.248;6.930;2022-12-04T08:16:07;15.77;;;9.57;;
13321;SDS011;6730;46.248;6.930;2022-12-04T08:18:34;16.63;;;11.17;;
13321;SDS011;6730;46.248;6.930;2022-12-04T08:21:07;17.23;;;10.63;;
13321;SDS011;6730;46.248;6.930;2022-12-04T08:23:35;15.47;;;10.33;;
13321;SDS011;6730;46.248;6.930;2022-12-04T08:26:02;18.90;;;11.33;;
13321;SDS011;6730;46.248;6.930;2022-12-04T08:28:29;20.33;;;12.63;;
13321;SDS011;6730;46.248;6.930;2022-12-04T08:30:55;18.97;;;12.57;;
13321;SDS011;6730;46.248;6.930;2022-12-04T08:33:29;23.97;;;13.63;;
13321;SDS011;6730;46.248;6.930;2022-12-04T08:35:55;19.60;;;12.67;;
13321;SDS011;6730;46.248;6.930;2022-12-04T08:38:21;20.90;;;12.57;;
13321;SDS011;6730;46.248;6.930;2022-12-04T08:40:46;22.57;;;13.03;;
13321;SDS011;6730;46.248;6.930;2022-12-04T08:43:12;20.20;;;12.00;;
13321;SDS011;6730;46.248;6.930;2022-12-04T08:45:38;22.43;;;13.47;;
13321;SDS011;6730;46.248;6.930;2022-12-04T08:48:03;19.33;;;12.23;;
13321;SDS011;6730;46.248;6.930;2022-12-04T08:50:29;20.30;;;12.90;;
13321;SDS011;6730;46.248;6.930;2022-12-04T08:52:55;24.20;;;12.27;;
13321;SDS011;6730;46.248;6.930;2022-12-04T08:55:21;20.80;;;12.40;;
13321;SDS011;6730;46.248;6.930;2022-12-04T08:57:46;19.93;;;12.53;;
13321;SDS011;6730;46.248;6.930;2022-12-04T09:00:14;19.90;;;11.30;;
13321;SDS011;6730;46.248;6.930;2022-12-04T09:02:40;19.23;;;11.87;;
13321;SDS011;6730;46.248;6.930;2022-12-04T09:05:05;22.53;;;13.00;;
13321;SDS011;6730;46.248;6.930;2022-12-04T09:07:31;19.33;;;11.63;;
13321;SDS011;6730;46.248;6.930;2022-12-04T09:09:57;20.47;;;12.60;;
13321;SDS011;6730;46.248;6.930;2022-12-04T09:12:27;21.50;;;12.53;;
13321;SDS011;6730;46.248;6.930;2022-12-04T09:14:52;17.93;;;12.27;;
13321;SDS011;6730;46.248;6.930;2022-12-04T09:17:18;19.17;;;11.80;;
13321;SDS011;6730;46.248;6.930;2022-12-04T09:19:44;21.70;;;12.60;;
13321;SDS011;6730;46.248;6.930;2022-12-04T09:22:09;19.00;;;11.97;;
13321;SDS011;6730;46.248;6.930;2022-12-04T09:24:35;19.40;;;11.50;;
13321;SDS011;6730;46.248;6.930;2022-12-04T09:27:00;19.93;;;11.83;;
13321;SDS011;6730;46.248;6.930;2022-12-04T09:29:26;19.73;;;11.40;;
13321;SDS011;6730;46.248;6.930;2022-12-04T09:31:52;23.73;;;13.43;;
13321;SDS011;6730;46.248;6.930;2022-12-04T09:34:17;21.30;;;12.53;;
13321;SDS011;6730;46.248;6.930;2022-12-04T09:36:43;21.00;;;12.83;;
13321;SDS011;6730;46.248;6.930;2022-12-04T09:39:09;19.40;;;11.10;;
13321;SDS011;6730;46.248;6.930;2022-12-04T09:44:05;17.93;;;10.47;;
13321;SDS011;6730;46.248;6.930;2022-12-04T09:46:41;18.33;;;10.80;;
13321;SDS011;6730;46.248;6.930;2022-12-04T09:49:28;19.77;;;10.33;;
13321;SDS011;6730;46.248;6.930;2022-12-04T09:52:10;21.60;;;11.67;;
13321;SDS011;6730;46.248;6.930;2022-12-04T09:54:43;17.67;;;11.57;;
13321;SDS011;6730;46.248;6.930;2022-12-04T09:58:12;19.80;;;11.90;;
13321;SDS011;6730;46.248;6.930;2022-12-04T10:00:10;19.43;;;12.13;;
13321;SDS011;6730;46.248;6.930;2022-12-04T10:02:39;20.73;;;12.20;;
13321;SDS011;6730;46.248;6.930;2022-12-04T10:05:13;21.60;;;13.07;;
13321;SDS011;6730;46.248;6.930;2022-12-04T10:26:31;17.57;;;10.53;;
13321;SDS011;6730;46.248;6.930;2022-12-04T10:29:03;20.00;;;13.00;;
13321;SDS011;6730;46.248;6.930;2022-12-04T10:31:37;24.37;;;12.57;;
13321;SDS011;6730;46.248;6.930;2022-12-04T10:34:12;24.53;;;12.63;;
13321;SDS011;6730;46.248;6.930;2022-12-04T10:36:46;22.47;;;12.50;;
13321;SDS011;6730;46.248;6.930;2022-12-04T10:44:29;21.30;;;11.27;;
13321;SDS011;6730;46.248;6.930;2022-12-04T10:46:57;18.80;;;11.47;;
13321;SDS011;6730;46.248;6.930;2022-12-04T10:49:28;19.23;;;12.37;;
13321;SDS011;6730;46.248;6.930;2022-12-04T10:51:55;19.83;;;12.07;;
13321;SDS011;6730;46.248;6.930;2022-12-04T10:54:35;18.53;;;11.53;;
13321;SDS011;6730;46.248;6.930;2022-12-04T10:59:34;20.73;;;11.63;;
13321;SDS011;6730;46.248;6.930;2022-12-04T11:02:20;19.13;;;11.73;;
13321;SDS011;6730;46.248;6.930;2022-12-04T11:05:06;16.97;;;10.77;;
13321;SDS011;6730;46.248;6.930;2022-12-04T11:07:47;22.40;;;11.27;;
13321;SDS011;6730;46.248;6.930;2022-12-04T11:10:27;18.23;;;12.37;;
13321;SDS011;6730;46.248;6.930;2022-12-04T11:13:18;21.03;;;12.80;;
13321;SDS011;6730;46.248;6.930;2022-12-04T11:15:47;18.87;;;12.10;;
13321;SDS011;6730;46.248;6.930;2022-12-04T11:18:24;20.90;;;12.53;;
13321;SDS011;6730;46.248;6.930;2022-12-04T11:20:56;19.93;;;12.77;;
13321;SDS011;6730;46.248;6.930;2022-12-04T11:23:24;20.10;;;12.57;;
13321;SDS011;6730;46.248;6.930;2022-12-04T11:25:54;22.17;;;12.73;;
13321;SDS011;6730;46.248;6.930;2022-12-04T11:28:23;20.83;;;12.87;;
13321;SDS011;6730;46.248;6.930;2022-12-04T11:30:51;22.63;;;13.40;;
13321;SDS011;6730;46.248;6.930;2022-12-04T11:35:59;20.03;;;11.27;;
13321;SDS011;6730;46.248;6.930;2022-12-04T11:38:28;22.23;;;11.73;;
13321;SDS011;6730;46.248;6.930;2022-12-04T11:40:57;18.00;;;11.33;;
13321;SDS011;6730;46.248;6.930;2022-12-04T11:43:27;20.70;;;12.57;;
13321;SDS011;6730;46.248;6.930;2022-12-04T11:45:54;19.43;;;12.50;;
13321;SDS011;6730;46.248;6.930;2022-12-04T11:48:26;23.57;;;14.03;;
13321;SDS011;6730;46.248;6.930;2022-12-04T11:51:02;25.07;;;13.03;;
13321;SDS011;6730;46.248;6.930;2022-12-04T11:56:30;20.03;;;13.13;;
13321;SDS011;6730;46.248;6.930;2022-12-04T12:07:42;23.00;;;13.33;;
13321;SDS011;6730;46.248;6.930;2022-12-04T12:10:25;24.63;;;12.90;;
13321;SDS011;6730;46.248;6.930;2022-12-04T12:16:08;22.17;;;13.70;;
13321;SDS011;6730;46.248;6.930;2022-12-04T12:21:59;22.93;;;12.80;;
13321;SDS011;6730;46.248;6.930;2022-12-04T12:30:21;23.30;;;13.03;;
13321;SDS011;6730;46.248;6.930;2022-12-04T12:33:09;18.03;;;11.83;;
13321;SDS011;6730;46.248;6.930;2022-12-04T12:35:57;22.47;;;12.47;;
13321;SDS011;6730;46.248;6.930;2022-12-04T12:38:30;23.50;;;13.23;;
13321;SDS011;6730;46.248;6.930;2022-12-04T12:41:18;23.87;;;12.70;;
13321;SDS011;6730;46.248;6.930;2022-12-04T12:43:51;20.73;;;11.93;;
13321;SDS011;6730;46.248;6.930;2022-12-04T12:46:33;24.27;;;13.27;;
13321;SDS011;6730;46.248;6.930;2022-12-04T12:49:24;19.97;;;12.83;;
13321;SDS011;6730;46.248;6.930;2022-12-04T12:52:00;24.63;;;13.77;;
13321;SDS011;6730;46.248;6.930;2022-12-04T12:57:19;27.47;;;14.50;;
13321;SDS011;6730;46.248;6.930;2022-12-04T13:00:04;25.33;;;16.43;;
13321;SDS011;6730;46.248;6.930;2022-12-04T13:02:43;24.67;;;14.53;;
13321;SDS011;6730;46.248;6.930;2022-12-04T13:05:28;23.37;;;14.03;;
13321;SDS011;6730;46.248;6.930;2022-12-04T13:08:15;22.63;;;13.77;;
13321;SDS011;6730;46.248;6.930;2022-12-04T13:11:10;21.93;;;12.80;;
13321;SDS011;6730;46.248;6.930;2022-12-04T13:13:43;20.67;;;13.40;;
13321;SDS011;6730;46.248;6.930;2022-12-04T13:16:16;23.83;;;13.50;;
13321;SDS011;6730;46.248;6.930;2022-12-04T13:30:19;23.60;;;14.03;;
13321;SDS011;6730;46.248;6.930;2022-12-04T13:35:45;23.63;;;13.20;;
13321;SDS011;6730;46.248;6.930;2022-12-04T13:40:50;22.80;;;13.37;;
13321;SDS011;6730;46.248;6.930;2022-12-04T13:43:43;26.83;;;13.57;;
13321;SDS011;6730;46.248;6.930;2022-12-04T13:48:51;24.37;;;14.23;;
13321;SDS011;6730;46.248;6.930;2022-12-04T13:54:17;26.17;;;13.43;;
13321;SDS011;6730;46.248;6.930;2022-12-04T13:56:56;24.53;;;13.70;;
13321;SDS011;6730;46.248;6.930;2022-12-04T13:59:41;23.53;;;13.37;;
13321;SDS011;6730;46.248;6.930;2022-12-04T14:05:06;22.07;;;13.17;;
13321;SDS011;6730;46.248;6.930;2022-12-04T14:07:35;22.20;;;13.53;;
13321;SDS011;6730;46.248;6.930;2022-12-04T14:13:00;21.97;;;13.40;;
13321;SDS011;6730;46.248;6.930;2022-12-04T14:15:32;22.00;;;13.27;;
13321;SDS011;6730;46.248;6.930;2022-12-04T14:20:35;24.87;;;14.63;;
13321;SDS011;6730;46.248;6.930;2022-12-04T14:26:02;26.87;;;17.67;;
13321;SDS011;6730;46.248;6.930;2022-12-04T14:31:40;29.30;;;16.20;;
13321;SDS011;6730;46.248;6.930;2022-12-04T14:36:26;25.47;;;15.00;;
13321;SDS011;6730;46.248;6.930;2022-12-04T14:39:00;28.23;;;16.37;;
13321;SDS011;6730;46.248;6.930;2022-12-04T14:41:32;25.47;;;15.67;;
13321;SDS011;6730;46.248;6.930;2022-12-04T14:43:58;36.23;;;18.93;;
13321;SDS011;6730;46.248;6.930;2022-12-04T14:46:27;28.37;;;19.10;;
13321;SDS011;6730;46.248;6.930;2022-12-04T14:51:58;26.43;;;16.07;;
13321;SDS011;6730;46.248;6.930;2022-12-04T14:55:10;27.53;;;15.90;;
13321;SDS011;6730;46.248;6.930;2022-12-04T15:00:18;23.33;;;13.73;;
13321;SDS011;6730;46.248;6.930;2022-12-04T15:02:47;20.97;;;13.83;;
13321;SDS011;6730;46.248;6.930;2022-12-04T15:05:18;24.43;;;14.10;;
13321;SDS011;6730;46.248;6.930;2022-12-04T15:07:49;22.67;;;12.77;;
13321;SDS011;6730;46.248;6.930;2022-12-04T15:13:11;26.03;;;15.83;;
13321;SDS011;6730;46.248;6.930;2022-12-04T15:15:43;25.10;;;13.60;;
13321;SDS011;6730;46.248;6.930;2022-12-04T15:18:11;21.37;;;13.30;;
13321;SDS011;6730;46.248;6.930;2022-12-04T15:23:14;23.17;;;13.83;;
13321;SDS011;6730;46.248;6.930;2022-12-04T15:25:45;24.57;;;14.60;;
13321;SDS011;6730;46.248;6.930;2022-12-04T15:28:18;23.50;;;14.73;;
13321;SDS011;6730;46.248;6.930;2022-12-04T15:30:52;24.50;;;14.27;;
13321;SDS011;6730;46.248;6.930;2022-12-04T15:33:20;25.90;;;14.77;;
13321;SDS011;6730;46.248;6.930;2022-12-04T15:35:51;20.40;;;13.23;;
13321;SDS011;6730;46.248;6.930;2022-12-04T15:38:29;19.37;;;12.40;;
13321;SDS011;6730;46.248;6.930;2022-12-04T15:40:56;24.33;;;14.47;;
13321;SDS011;6730;46.248;6.930;2022-12-04T15:43:38;21.10;;;13.53;;
13321;SDS011;6730;46.248;6.930;2022-12-04T15:46:19;25.33;;;15.47;;
13321;SDS011;6730;46.248;6.930;2022-12-04T15:48:47;21.60;;;12.30;;
13321;SDS011;6730;46.248;6.930;2022-12-04T15:51:18;21.40;;;12.93;;
13321;SDS011;6730;46.248;6.930;2022-12-04T15:53:45;27.57;;;15.97;;
13321;SDS011;6730;46.248;6.930;2022-12-04T15:56:19;25.27;;;14.37;;
13321;SDS011;6730;46.248;6.930;2022-12-04T15:58:53;22.30;;;14.70;;
13321;SDS011;6730;46.248;6.930;2022-12-04T16:01:21;21.43;;;12.83;;
13321;SDS011;6730;46.248;6.930;2022-12-04T16:03:49;23.07;;;14.83;;
13321;SDS011;6730;46.248;6.930;2022-12-04T16:06:21;22.97;;;14.07;;
13321;SDS011;6730;46.248;6.930;2022-12-04T16:08:51;25.73;;;16.03;;
13321;SDS011;6730;46.248;6.930;2022-12-04T16:11:32;25.23;;;13.93;;
13321;SDS011;6730;46.248;6.930;2022-12-04T16:16:42;23.97;;;16.63;;
13321;SDS011;6730;46.248;6.930;2022-12-04T16:21:46;30.07;;;17.13;;
13321;SDS011;6730;46.248;6.930;2022-12-04T16:24:12;38.03;;;22.97;;
13321;SDS011;6730;46.248;6.930;2022-12-04T16:26:38;30.97;;;16.63;;
13321;SDS011;6730;46.248;6.930;2022-12-04T16:29:04;25.30;;;15.83;;
13321;SDS011;6730;46.248;6.930;2022-12-04T16:31:30;23.70;;;14.23;;
13321;SDS011;6730;46.248;6.930;2022-12-04T16:33:56;17.17;;;10.53;;
13321;SDS011;6730;46.248;6.930;2022-12-04T16:36:21;20.73;;;13.37;;
13321;SDS011;6730;46.248;6.930;2022-12-04T16:38:47;28.27;;;14.33;;
13321;SDS011;6730;46.248;6.930;2022-12-04T16:41:14;23.07;;;14.00;;
13321;SDS011;6730;46.248;6.930;2022-12-04T16:43:41;24.80;;;14.17;;
13321;SDS011;6730;46.248;6.930;2022-12-04T16:46:14;29.13;;;20.30;;
13321;SDS011;6730;46.248;6.930;2022-12-04T16:48:46;23.87;;;15.10;;
13321;SDS011;6730;46.248;6.930;2022-12-04T16:51:14;26.93;;;15.90;;
13321;SDS011;6730;46.248;6.930;2022-12-04T16:53:41;27.97;;;15.70;;
13321;SDS011;6730;46.248;6.930;2022-12-04T16:56:07;24.37;;;15.00;;
13321;SDS011;6730;46.248;6.930;2022-12-04T16:58:33;27.87;;;14.50;;
13321;SDS011;6730;46.248;6.930;2022-12-04T17:00:58;23.23;;;13.63;;
13321;SDS011;6730;46.248;6.930;2022-12-04T17:03:26;23.47;;;12.47;;
13321;SDS011;6730;46.248;6.930;2022-12-04T17:05:53;15.30;;;10.60;;
13321;SDS011;6730;46.248;6.930;2022-12-04T17:08:20;18.00;;;10.17;;
13321;SDS011;6730;46.248;6.930;2022-12-04T17:10:46;17.83;;;10.50;;
13321;SDS011;6730;46.248;6.930;2022-12-04T17:13:11;17.93;;;10.43;;
13321;SDS011;6730;46.248;6.930;2022-12-04T17:15:37;18.40;;;11.00;;
13321;SDS011;6730;46.248;6.930;2022-12-04T17:18:03;15.30;;;9.87;;
13321;SDS011;6730;46.248;6.930;2022-12-04T17:20:29;25.63;;;15.90;;
13321;SDS011;6730;46.248;6.930;2022-12-04T17:22:55;18.10;;;11.23;;
13321;SDS011;6730;46.248;6.930;2022-12-04T17:25:22;18.20;;;12.33;;